Αρχική σελίδα
METAR-TAF:

METAR-TAF

Αεροδρόμια :

Διεθνής αερολιμένας Πράγας «Βάτσλαβ Χάβελ»

Πράγα, Τσεχία

γεωγραφικό πλάτος: 50-06N, γεωγραφικό μήκος: 014-15E, υψόμετρο: 365 μ

Παρών καιρός

Η αναφορά έγινε 9 λεπτά πριν, στις 00:00 UTC
Άνεμος 3 kt από ΝA
Θερμοκρασία 17°C
Υγρασία 59%
Πίεση 1016 hPa
Ορατότητα 10 χλμ και άνω
Δεν υπάρχουν νέφη με βάση κάτω από τα 1500 μ. και δεν υπάρχουν νέφη σωρειτομελανίτες.

METAR: LKPR 170000Z 13003KT CAVOK 17/09 Q1016 NOSIG

Χρόνος: 02:09 (00:09 UTC)

Πρόγνωση Καιρού

Η αναφορά έγινε 1 ώρα και 9 λεπτά πριν, στις 23:00 UTC
Η πρόγνωση ισχύει από τις 17 στις 00 UTC έως τις 18 στις 06 UTC
Άνεμος 2 kt από μεταβλητές κατευθύνσεις
Ορατότητα 10 χλμ και άνω
Δεν υπάρχουν νέφη με βάση κάτω από τα 1500 μ. και δεν υπάρχουν νέφη σωρειτομελανίτες.
Προσωρινά
από 17 στις 06 UTC έως τις 17 στις 19 UTC
Άνεμος 6 kt από Α/NA

TAF: LKPR 162300Z 1700/1806 VRB02KT CAVOK TEMPO 1706/1719 12006KT

Μετεωρολογικές αναφορές και προγνώσεις για περισσότερα από 4000 αεροδρόμια (δελτία METAR και TAF).

Οι διαθέσιμοι σταθμοί απεικονίζονται στο χάρτη με κίτρινες και κόκκινες κουκκίδες.

Μετακινήστε το ποντίκι πάνω από τις κουκκίδες για να δείτε το όνομα του σταθμού.

Στη συνέχεια, κάντε κλικ για να δείτε τις μετεωρολογικές αναφορές και τις προγνώσεις καιρού.

Για να αλλάξετε το χάρτη: κάντε κλικ στα πράσινα κουμπιά με τον μαύρο σταυρό για να ζουμάρετε, στο πράσινο κουμπί με την παύλα για να αφαιρέσετε το ζουμ ή στα πράσινα βέλη για να αντιπαραβάλλετε χάρτες.


METAR-TAF: